createdAt,value
2022-08-22T00:02:43.020Z,19.51
2022-08-22T00:02:55.897Z,21.37
2022-08-22T00:24:48.824Z,16.57
2022-08-22T00:35:05.694Z,17.62
2022-08-22T00:44:28.866Z,17.22
2022-08-22T00:53:54.561Z,16.35
2022-08-22T01:04:47.481Z,16.15
2022-08-22T01:46:20.719Z,15.51
2022-08-22T01:49:50.601Z,15.49
2022-08-22T02:03:31.799Z,15.21
2022-08-22T02:13:59.526Z,16.55
2022-08-22T02:31:52.353Z,15.07
2022-08-22T02:51:27.533Z,16.14
2022-08-22T02:55:01.999Z,14.85
2022-08-22T03:45:38.418Z,14.55
2022-08-22T04:42:49.696Z,14.10
2022-08-22T04:47:46.055Z,14.15
2022-08-22T04:50:34.607Z,14.76
2022-08-22T05:19:29.608Z,15.34
2022-08-22T05:22:08.450Z,14.41
2022-08-22T05:24:47.128Z,15.12
2022-08-22T05:27:35.289Z,14.72
2022-08-22T05:33:10.883Z,15.41
2022-08-22T05:36:06.984Z,14.55
2022-08-22T05:38:50.990Z,14.53
2022-08-22T05:41:23.456Z,15.20
2022-08-22T05:44:05.561Z,14.68
2022-08-22T05:49:48.438Z,15.34
2022-08-22T05:52:52.387Z,15.86
2022-08-22T05:55:30.234Z,15.17
2022-08-22T05:58:22.957Z,15.49
2022-08-22T06:01:21.946Z,15.89
2022-08-22T06:04:05.159Z,15.40
2022-08-22T06:06:48.909Z,16.07
2022-08-22T06:09:35.293Z,16.38
2022-08-22T06:12:16.472Z,15.63
2022-08-22T06:15:02.735Z,15.71
2022-08-22T06:17:49.114Z,16.97
2022-08-22T06:20:42.290Z,15.88
2022-08-22T06:23:25.048Z,17.12
2022-08-22T06:25:59.978Z,16.95
2022-08-22T06:28:33.623Z,17.28
2022-08-22T06:31:08.377Z,17.05
2022-08-22T06:33:46.131Z,16.28
2022-08-22T06:36:33.972Z,17.41
2022-08-22T06:39:18.640Z,16.50
2022-08-22T06:42:07.827Z,17.17
2022-08-22T06:44:47.864Z,17.59
2022-08-22T06:50:21.588Z,16.51
2022-08-22T06:52:58.125Z,17.35
2022-08-22T06:55:33.147Z,17.80
2022-08-22T07:01:11.222Z,16.84
2022-08-22T07:03:50.142Z,17.25
2022-08-22T07:06:35.872Z,17.96
2022-08-22T07:09:32.125Z,17.35
2022-08-22T07:12:03.781Z,17.21
2022-08-22T07:14:54.386Z,18.12
2022-08-22T07:17:23.841Z,17.74
2022-08-22T07:20:13.368Z,17.67
2022-08-22T07:23:03.285Z,18.22
2022-08-22T07:25:50.941Z,18.24
2022-08-22T07:28:51.493Z,17.22
2022-08-22T07:31:38.217Z,17.22
2022-08-22T07:34:37.884Z,18.11
2022-08-22T07:37:17.676Z,18.03
2022-08-22T07:39:54.579Z,17.40
2022-08-22T07:42:32.804Z,17.92
2022-08-22T07:45:08.673Z,17.61
2022-08-22T07:47:58.195Z,18.26
2022-08-22T07:50:32.192Z,18.23
2022-08-22T07:56:33.153Z,17.50
2022-08-22T08:02:05.716Z,17.34
2022-08-22T08:05:06.039Z,18.56
2022-08-22T08:10:40.941Z,18.31
2022-08-22T08:13:17.034Z,18.12
2022-08-22T08:16:04.226Z,18.66
2022-08-22T08:18:40.949Z,19.03
2022-08-22T08:21:40.604Z,18.04
2022-08-22T08:24:12.677Z,18.58
2022-08-22T08:26:52.489Z,18.30
2022-08-22T08:29:31.984Z,18.34
2022-08-22T08:32:20.221Z,18.47
2022-08-22T08:35:01.213Z,19.50
2022-08-22T08:37:45.202Z,19.87
2022-08-22T08:40:51.104Z,18.95
2022-08-22T08:43:38.924Z,19.73
2022-08-22T08:46:56.460Z,19.30
2022-08-22T08:49:50.649Z,19.37
2022-08-22T08:56:01.912Z,20.05
2022-08-22T08:59:03.228Z,19.63
2022-08-22T09:02:23.899Z,20.15
2022-08-22T09:05:20.751Z,20.97
2022-08-22T09:08:32.404Z,20.71
2022-08-22T09:11:42.664Z,21.23
2022-08-22T09:14:44.344Z,20.73
2022-08-22T09:17:58.225Z,20.96
2022-08-22T09:21:04.371Z,20.42
2022-08-22T09:29:08.217Z,20.81
2022-08-22T09:33:56.303Z,21.62
2022-08-22T09:43:24.178Z,22.42
2022-08-22T09:46:32.027Z,23.57
2022-08-22T09:49:52.589Z,23.69
2022-08-22T10:02:43.866Z,27.15
2022-08-22T10:05:44.294Z,28.42
2022-08-22T10:15:22.647Z,28.54
2022-08-22T10:24:59.899Z,29.36
2022-08-22T10:28:29.485Z,30.69
2022-08-22T10:45:54.831Z,31.33
2022-08-22T10:55:31.660Z,29.25
2022-08-22T11:05:30.569Z,29.64
2022-08-22T11:12:01.827Z,30.15
2022-08-22T11:15:34.933Z,31.00
2022-08-22T11:18:57.949Z,31.12
2022-08-22T11:22:40.229Z,31.75
2022-08-22T11:25:45.242Z,32.34
2022-08-22T11:29:16.657Z,32.15
2022-08-22T11:32:19.746Z,32.12
2022-08-22T11:38:03.041Z,32.38
2022-08-22T11:40:44.025Z,31.83
2022-08-22T11:43:38.446Z,31.03
2022-08-22T11:46:24.363Z,30.57
2022-08-22T11:49:26.857Z,30.90
2022-08-22T11:52:22.714Z,29.69
2022-08-22T11:55:14.255Z,29.47
2022-08-22T11:57:45.019Z,28.25
2022-08-22T12:00:39.482Z,27.56
2022-08-22T12:03:25.266Z,28.21
2022-08-22T12:06:01.349Z,27.78
2022-08-22T12:09:05.617Z,27.69
2022-08-22T12:11:43.361Z,27.76
2022-08-22T12:14:27.127Z,27.58
2022-08-22T12:17:08.798Z,28.65
2022-08-22T12:20:12.848Z,28.34
2022-08-22T12:23:21.618Z,27.74
2022-08-22T12:26:22.145Z,27.87
2022-08-22T12:29:03.329Z,28.37
2022-08-22T12:31:36.882Z,28.28
2022-08-22T12:34:14.896Z,27.66
2022-08-22T12:37:16.688Z,27.02
2022-08-22T12:40:06.160Z,27.68
2022-08-22T12:42:52.454Z,27.33
2022-08-22T12:45:35.465Z,26.56
2022-08-22T12:48:21.826Z,27.08
2022-08-22T12:50:52.912Z,26.90
2022-08-22T12:53:38.575Z,26.73
2022-08-22T12:56:18.583Z,26.85
2022-08-22T12:59:18.323Z,27.31
2022-08-22T13:01:47.943Z,27.62
2022-08-22T13:04:32.449Z,27.58
2022-08-22T13:07:18.369Z,27.74
2022-08-22T13:09:52.380Z,28.13
2022-08-22T13:12:27.595Z,28.86
2022-08-22T13:15:05.545Z,29.13
2022-08-22T13:17:37.875Z,29.62
2022-08-22T13:20:12.553Z,29.50
2022-08-22T13:22:45.257Z,29.24
2022-08-22T13:25:25.504Z,28.88
2022-08-22T13:27:54.959Z,28.82
2022-08-22T13:30:30.148Z,28.97
2022-08-22T13:33:04.421Z,28.70
2022-08-22T13:35:44.599Z,28.63
2022-08-22T13:38:26.173Z,28.47
2022-08-22T13:40:56.945Z,28.06
2022-08-22T13:43:27.224Z,28.16
2022-08-22T13:45:56.620Z,28.15
2022-08-22T13:48:44.472Z,28.56
2022-08-22T13:51:23.179Z,29.11
2022-08-22T13:54:00.769Z,29.46
2022-08-22T13:56:38.141Z,30.12
2022-08-22T13:59:25.302Z,30.84
2022-08-22T14:02:06.890Z,31.09
2022-08-22T14:04:39.373Z,31.85
2022-08-22T14:07:27.590Z,32.08
2022-08-22T14:09:58.318Z,32.35
2022-08-22T14:12:33.560Z,32.46
2022-08-22T14:15:21.498Z,32.85
2022-08-22T14:17:51.892Z,33.00
2022-08-22T14:20:32.071Z,32.93
2022-08-22T14:23:06.946Z,33.01
2022-08-22T14:25:35.996Z,33.17
2022-08-22T14:28:09.443Z,33.05
2022-08-22T14:30:59.356Z,32.36
2022-08-22T14:33:35.585Z,32.11
2022-08-22T14:36:19.136Z,31.84
2022-08-22T14:38:51.643Z,31.03
2022-08-22T14:41:56.183Z,30.64
2022-08-22T14:44:23.333Z,29.91
2022-08-22T14:46:53.631Z,29.77
2022-08-22T14:49:28.656Z,29.51
2022-08-22T14:52:04.745Z,28.90
2022-08-22T14:54:32.828Z,28.55
2022-08-22T14:57:10.087Z,28.51
2022-08-22T14:59:50.373Z,28.39
2022-08-22T15:02:25.858Z,28.41
2022-08-22T15:04:54.338Z,28.39
2022-08-22T15:07:24.216Z,28.39
2022-08-22T15:09:54.856Z,27.95
2022-08-22T15:12:27.058Z,28.10
2022-08-22T15:14:58.169Z,28.05
2022-08-22T15:17:32.749Z,27.91
2022-08-22T15:20:08.882Z,27.98
2022-08-22T15:22:39.445Z,27.98
2022-08-22T15:25:15.873Z,28.36
2022-08-22T15:27:48.790Z,28.77
2022-08-22T15:30:18.844Z,28.40
2022-08-22T15:32:50.476Z,29.08
2022-08-22T15:35:29.952Z,29.77
2022-08-22T15:40:48.288Z,29.62
2022-08-22T15:43:46.853Z,29.80
2022-08-22T15:46:39.683Z,29.40
2022-08-22T15:49:13.307Z,29.30
2022-08-22T15:51:52.490Z,29.66
2022-08-22T15:54:25.623Z,29.45
2022-08-22T15:57:25.637Z,28.61
2022-08-22T16:02:53.543Z,27.74
2022-08-22T16:05:27.340Z,29.19
2022-08-22T16:08:03.222Z,29.42
2022-08-22T16:10:35.110Z,29.60
2022-08-22T16:13:14.824Z,29.37
2022-08-22T16:19:27.667Z,29.46
2022-08-22T16:22:45.666Z,29.64
2022-08-22T16:25:46.719Z,29.63
2022-08-22T16:31:59.803Z,30.53
2022-08-22T16:35:04.033Z,30.19
2022-08-22T16:38:19.423Z,29.73
2022-08-22T16:41:39.576Z,27.80
2022-08-22T16:55:13.049Z,26.34
2022-08-22T16:58:15.892Z,27.26
2022-08-22T17:01:10.905Z,27.09
2022-08-22T17:03:52.720Z,26.34
2022-08-22T17:06:51.806Z,26.97
2022-08-22T17:10:14.724Z,26.84
2022-08-22T17:13:18.556Z,25.38
2022-08-22T17:16:22.181Z,25.46
2022-08-22T17:19:58.285Z,26.53
2022-08-22T17:22:44.989Z,25.34
2022-08-22T17:25:46.120Z,25.90
2022-08-22T17:28:40.791Z,26.28
2022-08-22T17:31:33.132Z,25.93
2022-08-22T18:05:35.661Z,25.04
2022-08-22T18:29:53.537Z,23.44
2022-08-22T18:39:47.356Z,24.28
2022-08-22T18:42:27.113Z,23.03
2022-08-22T18:45:13.259Z,23.35
2022-08-22T18:48:07.028Z,23.33
2022-08-22T18:51:11.521Z,24.05
2022-08-22T18:54:36.486Z,22.86
2022-08-22T18:57:49.529Z,22.49
2022-08-22T19:00:59.086Z,23.72
2022-08-22T19:03:59.566Z,23.66
2022-08-22T19:07:08.024Z,23.15
2022-08-22T19:10:30.378Z,23.49
2022-08-22T19:13:22.389Z,23.33
2022-08-22T19:16:18.139Z,22.14
2022-08-22T19:19:30.598Z,22.11
2022-08-22T19:22:24.575Z,23.19
2022-08-22T19:25:31.904Z,21.79
2022-08-22T19:28:38.615Z,23.01
2022-08-22T19:34:47.156Z,22.16
2022-08-22T19:37:34.170Z,21.73
2022-08-22T19:40:08.037Z,22.14
2022-08-22T19:42:50.781Z,22.43
2022-08-22T19:45:32.886Z,22.18
2022-08-22T19:51:28.990Z,22.45
2022-08-22T19:54:06.421Z,22.58
2022-08-22T19:57:10.161Z,22.16
2022-08-22T20:00:33.462Z,22.60
2022-08-22T20:03:11.020Z,21.81
2022-08-22T20:05:56.647Z,22.25
2022-08-22T20:08:59.070Z,21.80
2022-08-22T20:11:56.705Z,21.50
2022-08-22T20:14:33.099Z,22.43
2022-08-22T20:17:18.638Z,22.39
2022-08-22T20:22:54.218Z,20.89
2022-08-22T20:25:42.560Z,21.08
2022-08-22T20:28:48.896Z,21.92
2022-08-22T20:31:33.413Z,21.30
2022-08-22T20:34:03.664Z,20.90
2022-08-22T20:36:40.489Z,21.78
2022-08-22T20:39:20.774Z,22.08
2022-08-22T20:42:02.915Z,22.04
2022-08-22T20:44:40.158Z,21.97
2022-08-22T20:47:22.954Z,20.67
2022-08-22T20:49:58.642Z,21.16
2022-08-22T20:52:31.357Z,21.57
2022-08-22T20:55:05.344Z,21.24
2022-08-22T20:57:34.924Z,21.52
2022-08-22T21:00:15.788Z,21.56
2022-08-22T21:03:00.551Z,20.71
2022-08-22T21:05:45.122Z,20.53
2022-08-22T21:08:21.145Z,20.53
2022-08-22T21:11:03.008Z,20.72
2022-08-22T21:13:41.530Z,20.28
2022-08-22T21:16:22.454Z,20.39
2022-08-22T21:18:55.234Z,21.03
2022-08-22T21:21:37.930Z,20.14
2022-08-22T21:24:10.671Z,20.23
2022-08-22T21:26:49.546Z,21.12
2022-08-22T21:29:25.309Z,21.05
2022-08-22T21:32:15.083Z,20.70
2022-08-22T21:34:56.486Z,19.99
2022-08-22T21:37:31.222Z,21.22
2022-08-22T21:40:15.711Z,21.20
2022-08-22T21:43:00.049Z,19.88
2022-08-22T21:45:39.932Z,19.80
2022-08-22T21:48:47.869Z,21.14
2022-08-22T21:51:30.886Z,19.87
2022-08-22T21:54:50.580Z,21.12
2022-08-22T21:57:38.613Z,19.89
2022-08-22T22:00:11.751Z,19.95
2022-08-22T22:02:53.801Z,19.87
2022-08-22T22:05:39.637Z,21.10
2022-08-22T22:08:36.722Z,19.88
2022-08-22T22:11:21.202Z,19.90
2022-08-22T22:14:03.653Z,21.10
2022-08-22T22:16:43.815Z,20.69
2022-08-22T22:19:11.238Z,19.73
2022-08-22T22:21:51.189Z,20.90
2022-08-22T22:24:25.444Z,21.12
2022-08-22T22:27:00.872Z,20.80
2022-08-22T22:29:45.079Z,21.10
2022-08-22T22:32:15.097Z,19.86
2022-08-22T22:34:44.988Z,19.76
2022-08-22T22:37:33.153Z,20.58
2022-08-22T22:40:16.690Z,19.72
2022-08-22T22:42:57.463Z,20.67
2022-08-22T22:45:30.343Z,20.52
2022-08-22T22:48:09.471Z,20.09
2022-08-22T22:50:45.412Z,20.51
2022-08-22T22:53:43.038Z,19.77
2022-08-22T22:56:49.509Z,20.62
2022-08-22T22:59:25.690Z,21.04
2022-08-22T23:02:21.490Z,19.79
2022-08-22T23:05:13.892Z,19.85
2022-08-22T23:07:56.805Z,20.85
2022-08-22T23:10:34.561Z,20.77
2022-08-22T23:14:55.195Z,19.77
2022-08-22T23:25:13.596Z,21.00
2022-08-22T23:28:14.146Z,19.73
2022-08-22T23:31:32.778Z,19.59
2022-08-22T23:34:41.553Z,19.58
2022-08-22T23:37:13.400Z,20.73
2022-08-22T23:40:07.540Z,19.63
2022-08-22T23:48:37.133Z,19.61
2022-08-22T23:54:10.719Z,19.34
2022-08-22T23:58:00.328Z,20.57
